Time;durP1;ratioP1;P1;durP2;ratioP2;P2;SDS_P1;SDS_P2;PMS_P1;PMS_P2;Temp;Humidity;BMP_temperature;BMP_pressure;BME280_temperature;BME280_humidity;BME280_pressure;Samples;Min_cycle;Max_cycle;Signal;HPM_P1;HPM_P2
2022/01/10 00:02:02;;;;;;;36.60;18.80;;;3.90;99.90;;;;;;5033465;28;20703;-70
2022/01/10 00:04:27;;;;;;;32.57;18.33;;;3.90;99.90;;;;;;5033301;28;20206;-70
2022/01/10 00:06:53;;;;;;;31.23;19.00;;;3.80;99.90;;;;;;5033734;28;20652;-70
2022/01/10 00:09:18;;;;;;;38.60;18.90;;;3.80;99.90;;;;;;5033634;28;20180;-70
2022/01/10 00:11:44;;;;;;;34.63;18.57;;;3.80;99.90;;;;;;5033466;28;20174;-70
2022/01/10 00:14:10;;;;;;;30.40;17.60;;;3.80;99.90;;;;;;5033598;28;20177;-70
2022/01/10 00:16:35;;;;;;;35.73;18.50;;;3.80;99.90;;;;;;5033271;28;20209;-70
2022/01/10 00:19:01;;;;;;;31.27;17.63;;;3.80;99.90;;;;;;5033040;28;20174;-70
2022/01/10 00:21:26;;;;;;;32.53;18.00;;;3.90;99.90;;;;;;5033429;28;20275;-70
2022/01/10 00:23:52;;;;;;;39.40;18.53;;;3.80;99.90;;;;;;5033274;28;20166;-70
2022/01/10 00:26:18;;;;;;;32.77;17.97;;;3.80;99.90;;;;;;5033010;28;20234;-69
2022/01/10 00:28:43;;;;;;;34.20;17.23;;;3.80;99.90;;;;;;5033397;28;20192;-69
2022/01/10 00:31:09;;;;;;;32.70;16.77;;;3.80;99.90;;;;;;5032603;28;20170;-69
2022/01/10 00:33:35;;;;;;;38.33;18.33;;;3.70;99.90;;;;;;5032692;28;20213;-70
2022/01/10 00:36:01;;;;;;;30.77;16.70;;;3.70;99.90;;;;;;5032948;28;20224;-69
2022/01/10 00:38:26;;;;;;;38.80;18.67;;;3.70;99.90;;;;;;5033267;28;20726;-69
2022/01/10 00:40:52;;;;;;;31.77;17.73;;;3.70;99.90;;;;;;5033094;28;20594;-69
2022/01/10 00:43:29;;;;;;;30.57;17.63;;;3.60;99.90;;;;;;5032940;28;20185;-69
2022/01/10 00:45:55;;;;;;;32.60;17.60;;;3.60;99.90;;;;;;5032787;28;20180;-69
2022/01/10 00:48:20;;;;;;;33.03;17.80;;;3.60;99.90;;;;;;5032526;28;20186;-69
2022/01/10 00:50:46;;;;;;;31.37;18.37;;;3.50;99.90;;;;;;5033038;28;20182;-69
2022/01/10 00:53:11;;;;;;;30.30;18.20;;;3.50;99.90;;;;;;5032616;28;20650;-69
2022/01/10 00:55:37;;;;;;;33.33;18.37;;;3.50;99.90;;;;;;5032911;28;20217;-69
2022/01/10 00:58:03;;;;;;;33.33;19.13;;;3.60;99.90;;;;;;5033263;28;20178;-69
2022/01/10 01:00:29;;;;;;;35.33;17.73;;;3.50;99.90;;;;;;5032753;28;20181;-69
2022/01/10 01:02:54;;;;;;;35.03;19.00;;;3.50;99.90;;;;;;5031342;28;20268;-69
2022/01/10 01:05:22;;;;;;;39.27;18.83;;;3.40;99.90;;;;;;5032789;28;20189;-69
2022/01/10 01:07:48;;;;;;;33.70;19.10;;;3.30;99.90;;;;;;5033104;28;20235;-69
2022/01/10 01:24:08;;;;;;;37.53;18.63;;;3.40;99.90;;;;;;5032714;28;20212;-69
2022/01/10 01:26:45;;;;;;;33.93;18.57;;;3.40;99.90;;;;;;5032591;28;20197;-69
2022/01/10 01:29:14;;;;;;;35.33;18.97;;;3.40;99.90;;;;;;5032585;28;20633;-69
2022/01/10 01:31:40;;;;;;;36.37;19.17;;;3.50;99.90;;;;;;5032510;28;20166;-70
2022/01/10 01:34:06;;;;;;;31.33;18.10;;;3.40;99.90;;;;;;5032544;28;20253;-69
2022/01/10 01:36:33;;;;;;;31.57;17.97;;;3.30;99.90;;;;;;5032469;28;20210;-69
2022/01/10 01:39:00;;;;;;;35.40;18.30;;;3.30;99.90;;;;;;5032722;28;20250;-69
2022/01/10 01:43:59;;;;;;;34.50;18.47;;;3.30;99.90;;;;;;5036185;28;20617;-69
2022/01/10 01:46:25;;;;;;;37.33;19.20;;;3.40;99.90;;;;;;5035925;28;20220;-70
2022/01/10 01:48:53;;;;;;;36.97;18.87;;;3.40;99.90;;;;;;5036214;28;20197;-69
2022/01/10 01:51:20;;;;;;;38.73;18.73;;;3.50;99.90;;;;;;5035922;28;20184;-68
2022/01/10 01:53:47;;;;;;;32.17;18.87;;;3.50;99.90;;;;;;5036171;28;20174;-69
2022/01/10 01:56:16;;;;;;;32.40;20.07;;;3.50;99.90;;;;;;5035898;28;20214;-69
2022/01/10 01:58:43;;;;;;;42.23;19.47;;;3.40;99.90;;;;;;5035866;28;20185;-69
2022/01/10 02:01:11;;;;;;;39.60;20.37;;;3.30;99.90;;;;;;5035533;28;20228;-68
2022/01/10 02:03:38;;;;;;;33.07;19.27;;;3.20;99.90;;;;;;5035909;28;20166;-70
2022/01/10 02:06:05;;;;;;;36.03;19.70;;;3.10;99.90;;;;;;5035686;28;20185;-70
2022/01/10 02:08:31;;;;;;;32.50;18.63;;;3.00;99.90;;;;;;5035942;28;20197;-70
2022/01/10 02:10:56;;;;;;;39.93;19.77;;;3.10;99.90;;;;;;5035855;28;20166;-70
2022/01/10 02:13:22;;;;;;;35.33;19.23;;;3.00;99.90;;;;;;5035674;28;20194;-69
2022/01/10 02:15:56;;;;;;;36.27;19.57;;;3.00;99.90;;;;;;5035141;28;20198;-70
2022/01/10 02:18:22;;;;;;;34.07;19.17;;;3.00;99.90;;;;;;5035929;28;20169;-70
2022/01/10 02:20:48;;;;;;;37.07;19.63;;;3.00;99.90;;;;;;5035664;28;20186;-69
2022/01/10 02:23:15;;;;;;;31.70;17.73;;;3.00;99.90;;;;;;5035406;28;20178;-69
2022/01/10 02:25:41;;;;;;;37.03;19.40;;;2.90;99.90;;;;;;5035256;28;20221;-69
2022/01/10 02:28:07;;;;;;;33.87;20.10;;;2.90;99.90;;;;;;5035366;28;20189;-69
2022/01/10 02:30:58;;;;;;;41.10;20.20;;;2.90;99.90;;;;;;5035073;28;20177;-68
2022/01/10 02:33:27;;;;;;;33.47;19.17;;;3.10;99.90;;;;;;5035495;28;20178;-71
2022/01/10 02:36:03;;;;;;;43.03;18.77;;;3.00;99.90;;;;;;5035379;28;20217;-70
2022/01/10 02:38:29;;;;;;;39.13;22.73;;;3.10;99.90;;;;;;5035559;28;20177;-69
2022/01/10 02:40:56;;;;;;;36.67;20.00;;;3.10;99.90;;;;;;5035262;28;20626;-69
2022/01/10 02:43:22;;;;;;;40.57;20.40;;;3.10;99.90;;;;;;5034928;28;20658;-69
2022/01/10 02:45:47;;;;;;;39.17;20.33;;;3.20;99.90;;;;;;5034738;28;20276;-69
2022/01/10 02:48:13;;;;;;;36.77;18.57;;;3.20;99.90;;;;;;5035003;28;20176;-69
2022/01/10 02:50:39;;;;;;;36.37;19.77;;;3.20;99.90;;;;;;5035076;28;20228;-69
2022/01/10 02:53:04;;;;;;;41.13;19.73;;;3.20;99.90;;;;;;5034549;28;20238;-69
2022/01/10 02:55:30;;;;;;;32.10;18.87;;;3.20;99.90;;;;;;5034409;28;20220;-69
2022/01/10 02:57:56;;;;;;;36.77;18.90;;;3.20;99.90;;;;;;5034981;28;20178;-70
2022/01/10 03:00:24;;;;;;;32.90;19.03;;;3.10;99.90;;;;;;5034474;28;20526;-70
2022/01/10 03:02:52;;;;;;;38.20;19.17;;;3.20;99.90;;;;;;5034795;28;20177;-70
2022/01/10 03:05:20;;;;;;;31.37;18.90;;;3.20;99.90;;;;;;5034696;28;20166;-69
2022/01/10 03:07:47;;;;;;;30.23;18.30;;;3.00;99.90;;;;;;5033671;28;20676;-69
2022/01/10 03:10:13;;;;;;;34.37;17.83;;;3.00;99.90;;;;;;5034874;28;20641;-70
2022/01/10 03:12:38;;;;;;;34.80;18.63;;;2.90;99.90;;;;;;5034049;28;20173;-69
2022/01/10 03:15:09;;;;;;;36.67;18.87;;;2.90;99.90;;;;;;5034451;28;20227;-70
2022/01/10 03:17:36;;;;;;;39.53;18.17;;;2.90;99.90;;;;;;5034693;28;20197;-70
2022/01/10 03:20:04;;;;;;;32.93;18.07;;;2.90;99.90;;;;;;5034609;28;20192;-70
2022/01/10 03:22:31;;;;;;;32.27;17.63;;;3.00;99.90;;;;;;5034552;28;20264;-69
2022/01/10 03:24:57;;;;;;;32.00;18.47;;;3.10;99.90;;;;;;5033871;28;20208;-68
2022/01/10 03:27:23;;;;;;;31.73;17.53;;;3.10;99.90;;;;;;5033867;28;20228;-69
2022/01/10 03:29:48;;;;;;;33.93;18.27;;;3.10;99.90;;;;;;5034426;28;20181;-69
2022/01/10 03:32:14;;;;;;;34.43;17.93;;;3.10;99.90;;;;;;5032986;28;20629;-69
2022/01/10 03:34:40;;;;;;;31.03;17.37;;;3.00;99.90;;;;;;5034231;28;20617;-69
2022/01/10 03:37:06;;;;;;;36.77;18.20;;;2.90;99.90;;;;;;5034100;28;20650;-69
2022/01/10 03:39:32;;;;;;;37.40;18.33;;;2.90;99.90;;;;;;5034057;28;20618;-69
2022/01/10 03:41:58;;;;;;;37.63;18.07;;;2.90;99.90;;;;;;5033235;28;20661;-70
2022/01/10 03:44:23;;;;;;;27.80;17.97;;;2.90;99.90;;;;;;5034023;28;20177;-70
2022/01/10 03:46:49;;;;;;;34.73;18.60;;;2.90;99.90;;;;;;5033992;28;20181;-69
2022/01/10 03:49:15;;;;;;;31.27;18.30;;;2.90;99.90;;;;;;5033887;28;20173;-70
2022/01/10 03:51:41;;;;;;;29.47;18.77;;;3.00;99.90;;;;;;5033890;28;20196;-70
2022/01/10 03:54:06;;;;;;;36.37;18.73;;;2.90;99.90;;;;;;5033600;28;20201;-69
2022/01/10 03:56:32;;;;;;;35.20;18.90;;;2.90;99.90;;;;;;5032841;28;20219;-70
2022/01/10 03:58:58;;;;;;;33.07;18.63;;;2.90;99.90;;;;;;5033917;28;20262;-70
2022/01/10 04:01:24;;;;;;;30.67;18.87;;;2.90;99.90;;;;;;5033993;28;20694;-70
2022/01/10 04:03:51;;;;;;;31.13;18.90;;;2.80;99.90;;;;;;5033532;28;20256;-70
2022/01/10 04:06:17;;;;;;;36.47;18.87;;;2.80;99.90;;;;;;5032735;28;20185;-70
2022/01/10 04:08:43;;;;;;;38.63;19.33;;;2.70;99.90;;;;;;5033553;28;20177;-70
2022/01/10 04:11:08;;;;;;;33.67;19.07;;;2.70;99.90;;;;;;5032944;28;20259;-68
2022/01/10 04:13:34;;;;;;;36.63;20.13;;;2.70;99.90;;;;;;5033459;28;20179;-69
2022/01/10 04:16:00;;;;;;;32.00;19.77;;;2.70;99.90;;;;;;5033347;28;20556;-69
2022/01/10 04:18:26;;;;;;;38.87;20.40;;;2.80;99.90;;;;;;5033519;28;20181;-69
2022/01/10 04:20:52;;;;;;;42.10;20.50;;;2.80;99.90;;;;;;5032920;28;20208;-69
2022/01/10 04:23:18;;;;;;;43.73;22.63;;;2.80;99.90;;;;;;5033063;28;20620;-69
2022/01/10 04:25:44;;;;;;;36.47;21.00;;;2.80;99.90;;;;;;5032568;28;20263;-70
2022/01/10 04:28:10;;;;;;;41.93;22.23;;;2.80;99.90;;;;;;5033506;28;20211;-69
2022/01/10 04:30:36;;;;;;;39.53;21.23;;;2.70;99.90;;;;;;5033537;28;20173;-70
2022/01/10 04:33:03;;;;;;;34.20;21.23;;;2.70;99.90;;;;;;5032942;28;20177;-70
2022/01/10 04:35:30;;;;;;;40.07;20.73;;;2.50;99.90;;;;;;5032642;28;20234;-70
2022/01/10 04:37:56;;;;;;;34.47;20.53;;;2.40;99.90;;;;;;5033366;28;20232;-69
2022/01/10 04:40:27;;;;;;;36.60;20.50;;;2.30;99.90;;;;;;5032358;28;20181;-70
2022/01/10 04:42:53;;;;;;;41.90;21.50;;;2.30;99.90;;;;;;5033035;28;20180;-71
2022/01/10 04:45:18;;;;;;;37.10;21.27;;;2.30;99.90;;;;;;5032787;28;20619;-69
2022/01/10 04:47:44;;;;;;;40.87;21.93;;;2.30;99.90;;;;;;5033065;28;20546;-70
2022/01/10 04:52:38;;;;;;;42.27;22.17;;;2.50;99.90;;;;;;5032576;28;20193;-69
2022/01/10 04:55:05;;;;;;;42.93;22.47;;;2.50;99.90;;;;;;5032168;28;20705;-70
2022/01/10 04:57:30;;;;;;;41.97;22.37;;;2.50;99.90;;;;;;5032649;28;20195;-70
2022/01/10 04:59:56;;;;;;;41.20;21.80;;;2.50;99.90;;;;;;5032898;28;20177;-69
2022/01/10 05:02:22;;;;;;;40.60;22.00;;;2.50;99.90;;;;;;5032879;28;20202;-70
2022/01/10 05:04:47;;;;;;;39.27;22.53;;;2.40;99.90;;;;;;5031221;28;20629;-70
2022/01/10 05:07:13;;;;;;;41.13;23.30;;;2.40;99.90;;;;;;5032607;28;20186;-69
2022/01/10 05:09:39;;;;;;;39.50;22.43;;;2.50;99.90;;;;;;5032135;28;20585;-69
2022/01/10 05:12:05;;;;;;;37.93;22.43;;;2.50;99.90;;;;;;5032194;28;20467;-69
2022/01/10 05:14:32;;;;;;;39.37;21.90;;;2.50;99.90;;;;;;5032262;28;20174;-70
2022/01/10 05:16:58;;;;;;;40.83;22.53;;;2.50;99.90;;;;;;5033560;28;20251;-69
2022/01/10 05:19:23;;;;;;;40.00;22.33;;;2.50;99.90;;;;;;5036527;28;20181;-70
2022/01/10 05:21:49;;;;;;;41.40;21.83;;;2.40;99.90;;;;;;5036109;28;20641;-70
2022/01/10 05:24:15;;;;;;;34.47;21.63;;;2.40;99.90;;;;;;5035469;28;20192;-70
2022/01/10 05:26:40;;;;;;;40.00;22.10;;;2.40;99.90;;;;;;5036209;28;20228;-69
2022/01/10 05:29:06;;;;;;;42.03;22.87;;;2.50;99.90;;;;;;5036536;28;20174;-70
2022/01/10 05:31:34;;;;;;;44.83;23.37;;;2.50;99.90;;;;;;5036148;28;20242;-70
2022/01/10 05:34:01;;;;;;;40.83;23.97;;;2.60;99.90;;;;;;5035962;28;20174;-70
2022/01/10 05:36:27;;;;;;;38.90;23.13;;;2.60;99.90;;;;;;5035481;28;20289;-69
2022/01/10 05:38:52;;;;;;;41.10;23.87;;;2.60;99.90;;;;;;5035598;28;20250;-70
2022/01/10 05:41:21;;;;;;;35.40;21.63;;;2.60;99.90;;;;;;5035982;28;20180;-70
2022/01/10 05:43:47;;;;;;;39.57;23.27;;;2.60;99.90;;;;;;5035789;28;20216;-70
2022/01/10 05:46:15;;;;;;;39.53;22.60;;;2.60;99.90;;;;;;5035639;28;20186;-70
2022/01/10 05:48:46;;;;;;;39.70;23.70;;;2.60;99.90;;;;;;5035809;28;20530;-70
2022/01/10 05:51:12;;;;;;;41.60;22.67;;;2.60;99.90;;;;;;5035172;28;20184;-70
2022/01/10 05:53:38;;;;;;;47.47;24.43;;;2.60;99.90;;;;;;5034835;28;20184;-69
2022/01/10 05:56:04;;;;;;;41.10;23.03;;;2.70;99.90;;;;;;5035415;28;20583;-70
2022/01/10 05:58:30;;;;;;;41.53;22.93;;;2.60;99.90;;;;;;5035927;28;20169;-69
2022/01/10 06:00:56;;;;;;;38.63;21.40;;;2.60;99.90;;;;;;5035334;28;20179;-69
2022/01/10 06:03:22;;;;;;;38.97;20.83;;;2.60;99.90;;;;;;5035493;28;20170;-70
2022/01/10 06:05:47;;;;;;;37.63;21.13;;;2.70;99.90;;;;;;5034993;28;20188;-69
2022/01/10 06:08:13;;;;;;;36.43;21.40;;;2.60;99.90;;;;;;5035117;28;20173;-69
2022/01/10 06:10:39;;;;;;;39.87;21.67;;;2.60;99.90;;;;;;5034827;28;20219;-70
2022/01/10 06:13:05;;;;;;;34.67;20.10;;;2.50;99.90;;;;;;5035269;28;20207;-69
2022/01/10 06:15:31;;;;;;;37.67;20.80;;;2.60;99.90;;;;;;5034977;28;20200;-70
2022/01/10 06:17:57;;;;;;;44.30;21.33;;;2.60;99.90;;;;;;5034886;28;20212;-70
2022/01/10 06:20:23;;;;;;;40.57;21.30;;;2.60;99.90;;;;;;5034438;28;20187;-69
2022/01/10 06:22:49;;;;;;;37.87;20.60;;;2.70;99.90;;;;;;5034268;28;20188;-70
2022/01/10 06:25:18;;;;;;;37.63;19.23;;;2.70;99.90;;;;;;5034591;28;20254;-70
2022/01/10 06:27:45;;;;;;;37.50;20.10;;;2.60;99.90;;;;;;5034030;28;20225;-69
2022/01/10 06:30:11;;;;;;;35.83;19.37;;;2.60;99.90;;;;;;5033456;28;20225;-70
2022/01/10 06:32:37;;;;;;;35.90;19.90;;;2.60;99.90;;;;;;5033005;28;20186;-69
2022/01/10 06:35:03;;;;;;;36.57;18.90;;;2.60;99.90;;;;;;5034495;28;20170;-71
2022/01/10 06:37:29;;;;;;;34.33;17.67;;;2.60;99.90;;;;;;5033403;28;20228;-70
2022/01/10 06:39:54;;;;;;;34.47;18.60;;;2.40;99.90;;;;;;5034457;28;20227;-70
2022/01/10 06:42:20;;;;;;;31.00;17.77;;;2.40;99.90;;;;;;5033621;28;20179;-70
2022/01/10 06:44:46;;;;;;;30.03;18.57;;;2.40;99.90;;;;;;5034199;28;20177;-70
2022/01/10 06:47:11;;;;;;;36.17;18.00;;;2.30;99.90;;;;;;5033514;28;20227;-70
2022/01/10 06:49:37;;;;;;;30.23;17.70;;;2.30;99.90;;;;;;5033637;28;20178;-69
2022/01/10 06:52:04;;;;;;;33.70;18.73;;;2.30;99.90;;;;;;5033288;28;20200;-70
2022/01/10 06:54:29;;;;;;;32.13;18.43;;;2.40;99.90;;;;;;5033656;28;20168;-70
2022/01/10 06:56:58;;;;;;;28.23;17.23;;;2.40;99.90;;;;;;5033624;28;20592;-69
2022/01/10 06:59:28;;;;;;;30.17;17.33;;;2.30;99.90;;;;;;5033680;28;20178;-70
2022/01/10 07:01:58;;;;;;;27.67;16.73;;;2.10;99.90;;;;;;5033356;28;20176;-70
2022/01/10 07:04:25;;;;;;;27.53;16.33;;;2.10;99.90;;;;;;5033343;28;20246;-69
2022/01/10 07:06:50;;;;;;;29.97;17.00;;;2.00;99.90;;;;;;5033537;28;20176;-70
2022/01/10 07:09:16;;;;;;;28.10;16.13;;;2.00;99.90;;;;;;5033622;28;20214;-69
2022/01/10 07:11:42;;;;;;;31.10;18.27;;;2.00;99.90;;;;;;5032629;28;20576;-70
2022/01/10 07:14:08;;;;;;;27.10;16.70;;;1.90;99.90;;;;;;5033105;28;20173;-70
2022/01/10 07:16:34;;;;;;;29.63;16.67;;;1.90;99.90;;;;;;5032849;28;20240;-70
2022/01/10 07:19:00;;;;;;;30.67;17.07;;;1.90;99.90;;;;;;5033278;28;20252;-70
2022/01/10 07:21:26;;;;;;;24.83;15.80;;;1.80;99.90;;;;;;5033728;28;20182;-70
2022/01/10 07:23:52;;;;;;;25.07;15.77;;;1.80;99.90;;;;;;5032836;28;20175;-70
2022/01/10 07:26:17;;;;;;;27.23;14.73;;;1.80;99.90;;;;;;5033140;28;20233;-70
2022/01/10 07:28:43;;;;;;;24.50;13.90;;;1.70;99.90;;;;;;5032396;28;20591;-69
2022/01/10 07:31:08;;;;;;;25.03;14.50;;;1.70;99.90;;;;;;5032902;28;20170;-69
2022/01/10 07:33:35;;;;;;;23.83;14.10;;;1.60;99.90;;;;;;5032893;28;20264;-70
2022/01/10 07:36:02;;;;;;;24.47;14.60;;;1.60;99.90;;;;;;5033340;28;20239;-70
2022/01/10 07:38:28;;;;;;;22.53;13.20;;;1.50;99.90;;;;;;5033024;28;20257;-70
2022/01/10 07:40:53;;;;;;;23.17;13.07;;;1.50;99.90;;;;;;5032652;28;20563;-70
2022/01/10 07:43:19;;;;;;;25.70;13.73;;;1.40;99.90;;;;;;5033193;28;20170;-69
2022/01/10 07:45:44;;;;;;;24.03;13.57;;;1.30;99.90;;;;;;5033073;28;20273;-70
2022/01/10 07:48:10;;;;;;;27.33;13.70;;;1.20;99.90;;;;;;5032251;28;20225;-70
2022/01/10 07:50:36;;;;;;;23.27;13.33;;;1.20;99.90;;;;;;5032975;28;20661;-70
2022/01/10 07:53:02;;;;;;;23.90;13.37;;;1.30;99.90;;;;;;5032251;28;20193;-70
2022/01/10 07:55:28;;;;;;;22.87;13.23;;;1.20;99.90;;;;;;5032445;28;20178;-70
2022/01/10 07:57:53;;;;;;;27.30;13.47;;;1.30;99.90;;;;;;5032498;28;20172;-70
2022/01/10 08:00:19;;;;;;;24.93;14.13;;;1.30;99.90;;;;;;5035491;28;20253;-69
2022/01/10 08:02:45;;;;;;;25.37;12.87;;;1.50;99.90;;;;;;5033980;28;20228;-68
2022/01/10 08:05:11;;;;;;;24.07;13.90;;;1.50;99.90;;;;;;5044685;28;20182;-68
2022/01/10 08:07:37;;;;;;;25.77;14.07;;;1.50;99.90;;;;;;5051496;28;20163;-70
2022/01/10 08:10:09;;;;;;;23.13;13.80;;;1.50;99.90;;;;;;5050629;28;20170;-68
2022/01/10 08:12:35;;;;;;;22.17;12.77;;;1.50;99.90;;;;;;5032501;28;20195;-69
2022/01/10 08:15:01;;;;;;;26.10;14.30;;;1.40;99.90;;;;;;5032095;28;20191;-69
2022/01/10 08:17:29;;;;;;;22.77;14.13;;;1.50;99.90;;;;;;5031771;28;20250;-70
2022/01/10 08:19:55;;;;;;;34.20;13.80;;;1.70;99.90;;;;;;5047869;28;20277;-69
2022/01/10 08:22:20;;;;;;;20.30;12.57;;;1.70;99.90;;;;;;5033743;28;20283;-69
2022/01/10 08:24:47;;;;;;;22.23;14.00;;;1.80;99.90;;;;;;5041638;28;20241;-70
2022/01/10 08:27:14;;;;;;;30.63;16.17;;;1.80;99.90;;;;;;5037095;28;20214;-70
2022/01/10 08:29:39;;;;;;;26.17;14.90;;;1.90;99.90;;;;;;5041545;28;20178;-69
2022/01/10 08:32:05;;;;;;;25.07;14.33;;;1.70;99.90;;;;;;5030873;28;20188;-69
2022/01/10 08:34:31;;;;;;;25.37;14.53;;;1.70;99.90;;;;;;5038344;28;20180;-69
2022/01/10 08:37:00;;;;;;;30.30;15.50;;;1.90;99.90;;;;;;5037965;28;20224;-70
2022/01/10 08:39:25;;;;;;;28.40;14.97;;;2.00;99.90;;;;;;5032150;28;20176;-70
2022/01/10 08:41:51;;;;;;;25.73;14.43;;;2.10;99.90;;;;;;5046656;28;20537;-69
2022/01/10 08:44:17;;;;;;;27.87;14.23;;;2.10;99.90;;;;;;5044024;28;20629;-69
2022/01/10 08:46:45;;;;;;;27.20;14.33;;;2.10;99.90;;;;;;5033884;28;20188;-69
2022/01/10 08:49:12;;;;;;;31.47;14.13;;;2.00;99.90;;;;;;5041096;28;20326;-69
2022/01/10 08:51:38;;;;;;;25.13;14.67;;;2.00;99.90;;;;;;5040290;28;20716;-70
2022/01/10 08:54:04;;;;;;;29.53;15.03;;;2.10;99.90;;;;;;5042827;28;20208;-69
2022/01/10 08:56:31;;;;;;;29.00;14.73;;;2.10;99.90;;;;;;5042691;28;20679;-69
2022/01/10 08:59:00;;;;;;;30.00;16.03;;;2.10;99.90;;;;;;5042150;28;20185;-70
2022/01/10 09:01:26;;;;;;;26.43;13.73;;;2.20;99.90;;;;;;5029808;28;20532;-69
2022/01/10 09:03:53;;;;;;;29.00;14.67;;;2.40;99.90;;;;;;5032435;28;20295;-70
2022/01/10 09:06:19;;;;;;;24.63;14.93;;;2.40;99.90;;;;;;5044267;28;20197;-69
2022/01/10 09:08:46;;;;;;;27.30;14.77;;;2.50;99.90;;;;;;5035579;28;20379;-69
2022/01/10 09:11:12;;;;;;;29.80;14.67;;;2.70;99.90;;;;;;5036009;28;20272;-68
2022/01/10 09:13:38;;;;;;;28.47;15.40;;;2.90;99.90;;;;;;5037925;28;20214;-69
2022/01/10 09:16:07;;;;;;;26.90;15.10;;;2.60;99.90;;;;;;5039787;28;20215;-69
2022/01/10 09:18:33;;;;;;;29.23;14.40;;;2.70;99.90;;;;;;5049714;28;20180;-70
2022/01/10 09:20:58;;;;;;;28.57;14.60;;;2.90;99.90;;;;;;5038312;28;20181;-69
2022/01/10 09:23:25;;;;;;;42.67;17.00;;;3.00;99.90;;;;;;5031420;28;20177;-70
2022/01/10 09:25:51;;;;;;;26.87;14.30;;;3.20;99.90;;;;;;5032557;28;20746;-69
2022/01/10 09:28:18;;;;;;;25.83;14.67;;;3.40;99.90;;;;;;5035881;28;20185;-69
2022/01/10 09:30:44;;;;;;;24.07;14.30;;;3.40;99.90;;;;;;5020796;28;20182;-69
2022/01/10 09:33:09;;;;;;;24.17;13.93;;;3.60;99.90;;;;;;5040610;28;20612;-69
2022/01/10 09:35:36;;;;;;;22.20;11.87;;;3.60;99.90;;;;;;5041041;28;20722;-69
2022/01/10 09:38:02;;;;;;;19.17;12.03;;;3.50;99.90;;;;;;5044445;28;20192;-68
2022/01/10 09:40:28;;;;;;;22.77;12.93;;;3.40;99.90;;;;;;5042902;28;20193;-70
2022/01/10 09:42:54;;;;;;;22.23;12.57;;;3.50;99.90;;;;;;5034331;28;20273;-69
2022/01/10 09:45:19;;;;;;;22.30;12.80;;;3.60;99.90;;;;;;5034536;28;20268;-69
2022/01/10 09:47:45;;;;;;;21.50;12.33;;;3.70;99.90;;;;;;5037936;28;20197;-69
2022/01/10 09:50:16;;;;;;;18.77;11.47;;;3.90;99.90;;;;;;5039080;28;20185;-68
2022/01/10 09:52:43;;;;;;;17.87;11.30;;;3.90;99.90;;;;;;5033505;28;20669;-69
2022/01/10 09:55:09;;;;;;;25.00;12.67;;;4.00;99.90;;;;;;5032635;28;20194;-69
2022/01/10 09:57:35;;;;;;;19.50;12.03;;;4.00;99.90;;;;;;5039063;28;20251;-68
2022/01/10 10:00:01;;;;;;;19.03;12.00;;;4.40;99.90;;;;;;5038851;28;20265;-70
2022/01/10 10:02:31;;;;;;;21.40;11.93;;;4.70;99.90;;;;;;5029526;28;20182;-69
2022/01/10 10:04:57;;;;;;;19.97;12.37;;;4.80;99.90;;;;;;5040992;28;20326;-68
2022/01/10 10:07:24;;;;;;;19.13;12.50;;;4.70;99.90;;;;;;5039509;28;20570;-69
2022/01/10 10:09:49;;;;;;;18.67;11.47;;;4.40;99.90;;;;;;5042222;28;20235;-69
2022/01/10 10:12:15;;;;;;;19.43;12.50;;;4.50;99.90;;;;;;5036989;28;20745;-69
2022/01/10 10:14:45;;;;;;;19.10;12.37;;;4.70;99.90;;;;;;5033667;28;20196;-69
2022/01/10 10:17:12;;;;;;;17.77;12.27;;;4.80;99.90;;;;;;5034123;28;20218;-69
2022/01/10 10:19:38;;;;;;;19.80;12.17;;;4.80;99.90;;;;;;5037070;28;20186;-68
2022/01/10 10:22:04;;;;;;;20.30;12.03;;;4.80;99.90;;;;;;5037114;28;20247;-69
2022/01/10 10:24:29;;;;;;;19.90;12.13;;;4.90;99.90;;;;;;5050816;28;20189;-69
2022/01/10 10:26:57;;;;;;;20.10;13.10;;;4.70;99.90;;;;;;5042685;28;20185;-68
2022/01/10 10:29:23;;;;;;;17.40;12.27;;;4.60;99.90;;;;;;5037185;28;20243;-69
2022/01/10 10:31:52;;;;;;;18.10;12.17;;;4.60;99.90;;;;;;5040719;28;20637;-68
2022/01/10 10:34:20;;;;;;;20.07;12.17;;;4.50;99.90;;;;;;5045470;28;20247;-69
2022/01/10 10:36:57;;;;;;;22.63;14.40;;;4.60;99.90;;;;;;5034855;28;20213;-68
2022/01/10 10:39:25;;;;;;;18.10;11.60;;;4.40;99.90;;;;;;5032833;28;20221;-70
2022/01/10 10:41:55;;;;;;;19.63;13.13;;;4.10;99.90;;;;;;5037265;28;20182;-69
2022/01/10 10:44:21;;;;;;;17.17;12.17;;;3.90;99.90;;;;;;5052066;28;20173;-69
2022/01/10 10:46:49;;;;;;;17.77;11.73;;;4.00;99.90;;;;;;5040098;28;20186;-68
2022/01/10 10:49:18;;;;;;;19.17;12.10;;;4.20;99.90;;;;;;5053290;28;20178;-70
2022/01/10 10:51:51;;;;;;;18.80;12.90;;;4.50;99.90;;;;;;5039010;28;20579;-70
2022/01/10 10:54:17;;;;;;;19.70;13.30;;;4.70;99.90;;;;;;5036167;28;20181;-70
2022/01/10 10:56:44;;;;;;;18.37;12.47;;;4.70;99.90;;;;;;5039636;28;20241;-69
2022/01/10 10:59:11;;;;;;;19.43;13.03;;;4.50;99.90;;;;;;5034747;28;20169;-69
2022/01/10 11:01:39;;;;;;;20.37;12.33;;;4.40;99.90;;;;;;5040922;28;20262;-69
2022/01/10 11:04:06;;;;;;;19.67;12.50;;;4.50;99.90;;;;;;5039033;28;20165;-70
2022/01/10 11:06:33;;;;;;;19.67;13.10;;;4.40;99.90;;;;;;5040115;28;20177;-69
2022/01/10 11:09:06;;;;;;;19.17;12.50;;;4.60;99.90;;;;;;5042923;28;20224;-69
2022/01/10 11:11:32;;;;;;;22.50;16.03;;;4.80;99.90;;;;;;5033782;28;20670;-70
2022/01/10 11:14:00;;;;;;;21.67;15.83;;;4.90;99.90;;;;;;5036589;28;20185;-70
2022/01/10 11:16:26;;;;;;;18.30;13.17;;;5.00;99.90;;;;;;5042358;28;20205;-70
2022/01/10 11:18:53;;;;;;;19.80;13.43;;;5.10;99.90;;;;;;5034592;28;20643;-70
2022/01/10 11:21:19;;;;;;;20.07;13.17;;;5.30;99.90;;;;;;5033208;28;20170;-69
2022/01/10 11:23:46;;;;;;;20.07;14.40;;;4.90;99.90;;;;;;5033703;28;20713;-69
2022/01/10 11:26:13;;;;;;;20.67;13.50;;;4.80;99.90;;;;;;5032387;28;20339;-69
2022/01/10 11:29:05;;;;;;;17.23;12.63;;;4.90;99.90;;;;;;5032802;28;20174;-70
2022/01/10 11:31:31;;;;;;;19.47;13.37;;;4.80;99.90;;;;;;5033500;28;20182;-70
2022/01/10 11:33:58;;;;;;;19.33;13.90;;;5.00;99.90;;;;;;5032968;28;20245;-69
2022/01/10 11:36:26;;;;;;;17.80;12.83;;;4.80;99.90;;;;;;5033801;28;20240;-69
2022/01/10 11:38:53;;;;;;;19.53;13.93;;;4.70;99.90;;;;;;5033160;28;20533;-70
2022/01/10 11:41:31;;;;;;;20.53;12.90;;;4.90;99.90;;;;;;5031826;28;20284;-69
2022/01/10 11:44:11;;;;;;;21.50;12.63;;;4.70;99.90;;;;;;5033337;28;20560;-69
2022/01/10 11:46:44;;;;;;;18.83;12.80;;;4.70;99.90;;;;;;5032501;28;20162;-70
2022/01/10 11:49:10;;;;;;;20.50;12.67;;;4.60;99.90;;;;;;5031114;28;20196;-69
2022/01/10 11:51:36;;;;;;;21.47;12.50;;;4.60;99.90;;;;;;5033409;28;20198;-71
2022/01/10 11:54:37;;;;;;;18.53;12.50;;;4.60;99.90;;;;;;5033185;28;20249;-69
2022/01/10 11:57:06;;;;;;;17.27;12.23;;;4.40;99.90;;;;;;5051082;28;20215;-70
2022/01/10 11:59:33;;;;;;;18.33;11.97;;;4.30;99.90;;;;;;5052418;28;20173;-70
2022/01/10 12:02:04;;;;;;;20.70;13.77;;;4.40;99.90;;;;;;5048816;28;20177;-69
2022/01/10 12:04:35;;;;;;;20.93;13.13;;;4.20;99.90;;;;;;5031429;28;20229;-69
2022/01/10 12:07:02;;;;;;;19.57;13.23;;;4.20;99.90;;;;;;5032291;28;20184;-70
2022/01/10 12:09:28;;;;;;;20.13;13.47;;;4.00;99.90;;;;;;5032171;28;20257;-70
2022/01/10 12:11:59;;;;;;;24.53;14.07;;;4.00;99.90;;;;;;5033272;28;20260;-70
2022/01/10 12:14:25;;;;;;;22.17;14.00;;;3.90;99.90;;;;;;5032514;28;20181;-71
2022/01/10 12:16:51;;;;;;;21.17;13.30;;;3.80;99.90;;;;;;5032284;28;20267;-69
2022/01/10 12:19:21;;;;;;;21.47;13.87;;;3.80;99.90;;;;;;5032653;28;20859;-69
2022/01/10 12:21:47;;;;;;;20.33;13.67;;;3.90;99.90;;;;;;5033792;28;20641;-69
2022/01/10 12:24:14;;;;;;;19.97;13.33;;;4.00;99.90;;;;;;5033253;28;20656;-70
2022/01/10 12:26:40;;;;;;;20.20;12.70;;;4.30;99.90;;;;;;5031285;28;20189;-69
2022/01/10 12:29:11;;;;;;;27.87;13.77;;;4.20;99.90;;;;;;5031838;28;20205;-71
2022/01/10 12:31:38;;;;;;;20.93;12.73;;;3.70;99.90;;;;;;5031446;28;20224;-71
2022/01/10 12:34:05;;;;;;;24.13;13.63;;;3.60;99.90;;;;;;5033203;28;20178;-71
2022/01/10 12:36:32;;;;;;;22.00;13.40;;;3.70;99.90;;;;;;5041135;28;20224;-70
2022/01/10 12:39:12;;;;;;;26.27;13.50;;;3.70;99.90;;;;;;5051490;28;20644;-71
2022/01/10 12:41:38;;;;;;;24.00;13.90;;;3.60;99.90;;;;;;5052459;28;20308;-70
2022/01/10 12:44:05;;;;;;;19.80;11.87;;;3.50;99.90;;;;;;5049471;28;20256;-67
2022/01/10 12:46:33;;;;;;;21.17;13.50;;;3.60;99.90;;;;;;5052199;28;20173;-68
2022/01/10 12:49:07;;;;;;;19.70;13.83;;;3.80;99.90;;;;;;5047074;28;20192;-68
2022/01/10 12:51:36;;;;;;;23.80;14.77;;;3.80;99.90;;;;;;5032082;28;20197;-70
2022/01/10 12:54:16;;;;;;;19.37;12.97;;;3.90;99.90;;;;;;5031674;28;20192;-69